createdAt,value
2019-02-23T00:00:37.899Z,-2.83
2019-02-23T00:03:10.356Z,-2.38
2019-02-23T00:05:40.880Z,-2.20
2019-02-23T00:08:11.104Z,-2.31
2019-02-23T00:10:41.628Z,-2.46
2019-02-23T00:13:11.859Z,-2.55
2019-02-23T00:15:42.115Z,-2.65
2019-02-23T00:18:13.506Z,-2.53
2019-02-23T00:20:43.715Z,-2.58
2019-02-23T00:23:13.936Z,-2.76
2019-02-23T00:25:44.183Z,-2.82
2019-02-23T00:28:14.384Z,-2.89
2019-02-23T00:30:44.597Z,-3.02
2019-02-23T00:33:14.838Z,-2.97
2019-02-23T00:35:46.117Z,-3.05
2019-02-23T00:38:16.367Z,-2.93
2019-02-23T00:40:46.559Z,-2.84
2019-02-23T00:43:16.757Z,-2.84
2019-02-23T00:45:46.974Z,-2.75
2019-02-23T00:48:17.243Z,-2.81
2019-02-23T00:50:47.538Z,-3.02
2019-02-23T00:53:17.788Z,-3.14
2019-02-23T00:55:47.965Z,-3.13
2019-02-23T00:58:18.181Z,-3.05
2019-02-23T01:00:48.407Z,-3.04
2019-02-23T01:03:18.950Z,-3.01
2019-02-23T01:05:49.198Z,-3.03
2019-02-23T01:08:19.491Z,-3.14
2019-02-23T01:10:57.717Z,-3.16
2019-02-23T01:13:21.935Z,-3.14
2019-02-23T01:15:52.200Z,-3.14
2019-02-23T01:18:22.425Z,-3.37
2019-02-23T01:20:52.676Z,-2.96
2019-02-23T01:23:23.007Z,-2.78
2019-02-23T01:25:53.281Z,-3.13
2019-02-23T01:28:23.485Z,-3.34
2019-02-23T01:30:53.835Z,-3.41
2019-02-23T01:33:24.076Z,-3.05
2019-02-23T01:35:54.416Z,-3.09
2019-02-23T01:38:24.595Z,-3.02
2019-02-23T01:40:54.912Z,-2.81
2019-02-23T01:43:25.139Z,-3.00
2019-02-23T01:45:55.347Z,-2.96
2019-02-23T01:48:25.597Z,-3.17
2019-02-23T01:50:55.854Z,-3.34
2019-02-23T01:53:26.051Z,-2.88
2019-02-23T01:55:56.352Z,-2.97
2019-02-23T01:58:26.572Z,-3.21
2019-02-23T02:00:56.776Z,-3.35
2019-02-23T02:03:27.347Z,-3.43
2019-02-23T02:05:57.655Z,-3.32
2019-02-23T02:08:27.878Z,-3.39
2019-02-23T02:10:58.158Z,-3.45
2019-02-23T02:13:28.455Z,-3.53
2019-02-23T02:15:58.725Z,-3.78
2019-02-23T02:18:28.959Z,-3.77
2019-02-23T02:20:59.194Z,-3.62
2019-02-23T02:23:29.456Z,-3.81
2019-02-23T02:25:59.693Z,-3.87
2019-02-23T02:28:29.915Z,-3.90
2019-02-23T02:31:00.138Z,-3.96
2019-02-23T02:33:30.355Z,-3.99
2019-02-23T02:36:00.713Z,-4.09
2019-02-23T02:38:31.004Z,-3.99
2019-02-23T02:41:01.223Z,-3.73
2019-02-23T02:43:32.584Z,-3.77
2019-02-23T02:46:02.812Z,-3.63
2019-02-23T02:48:33.078Z,-3.72
2019-02-23T02:51:03.419Z,-3.53
2019-02-23T02:53:33.676Z,-3.58
2019-02-23T02:56:03.944Z,-3.67
2019-02-23T02:58:34.223Z,-3.62
2019-02-23T03:01:05.035Z,-3.91
2019-02-23T03:03:35.653Z,-3.80
2019-02-23T03:06:06.068Z,-3.84
2019-02-23T03:08:36.302Z,-3.73
2019-02-23T03:11:06.498Z,-3.77
2019-02-23T03:13:36.719Z,-3.76
2019-02-23T03:16:06.942Z,-3.78
2019-02-23T03:18:37.326Z,-3.68
2019-02-23T03:21:07.551Z,-3.57
2019-02-23T03:23:38.005Z,-3.67
2019-02-23T03:26:08.219Z,-3.80
2019-02-23T03:28:39.477Z,-3.82
2019-02-23T03:31:09.728Z,-3.75
2019-02-23T03:33:39.967Z,-3.79
2019-02-23T03:36:11.110Z,-3.83
2019-02-23T03:38:42.607Z,-3.88
2019-02-23T03:41:12.809Z,-3.93
2019-02-23T03:43:43.087Z,-3.92
2019-02-23T03:46:13.315Z,-4.00
2019-02-23T03:48:43.569Z,-4.05
2019-02-23T03:51:13.791Z,-4.08
2019-02-23T03:53:44.217Z,-4.11
2019-02-23T03:56:14.454Z,-4.08
2019-02-23T03:58:44.676Z,-4.09
2019-02-23T04:01:15.201Z,-4.13
2019-02-23T04:03:45.702Z,-4.15
2019-02-23T04:06:16.156Z,-3.95
2019-02-23T04:08:46.438Z,-4.06
2019-02-23T04:11:16.617Z,-4.18
2019-02-23T04:13:47.028Z,-4.09
2019-02-23T04:16:17.323Z,-4.22
2019-02-23T04:18:47.614Z,-4.29
2019-02-23T04:21:17.915Z,-4.35
2019-02-23T04:23:48.141Z,-4.31
2019-02-23T04:26:18.576Z,-4.31
2019-02-23T04:28:49.020Z,-4.33
2019-02-23T04:31:19.262Z,-4.34
2019-02-23T04:33:49.504Z,-4.38
2019-02-23T04:36:19.735Z,-4.37
2019-02-23T04:38:50.020Z,-4.31
2019-02-23T04:41:20.275Z,-4.23
2019-02-23T04:43:50.494Z,-4.30
2019-02-23T04:46:20.707Z,-4.21
2019-02-23T04:48:51.049Z,-4.31
2019-02-23T04:51:21.289Z,-4.31
2019-02-23T04:53:51.552Z,-4.33
2019-02-23T04:56:21.793Z,-4.31
2019-02-23T04:58:52.024Z,-4.28
2019-02-23T05:01:22.268Z,-4.24
2019-02-23T05:03:52.863Z,-4.16
2019-02-23T05:06:24.145Z,-4.16
2019-02-23T05:08:54.532Z,-4.14
2019-02-23T05:11:24.748Z,-4.12
2019-02-23T05:13:55.079Z,-4.12
2019-02-23T05:16:25.322Z,-4.04
2019-02-23T05:18:55.568Z,-4.01
2019-02-23T05:21:27.096Z,-3.99
2019-02-23T05:23:57.378Z,-3.88
2019-02-23T05:26:27.623Z,-3.91
2019-02-23T05:28:57.899Z,-3.92
2019-02-23T05:31:28.132Z,-3.91
2019-02-23T05:33:58.414Z,-3.88
2019-02-23T05:36:30.522Z,-3.86
2019-02-23T05:39:00.848Z,-3.93
2019-02-23T05:41:32.871Z,-3.92
2019-02-23T05:44:03.119Z,-3.89
2019-02-23T05:46:36.027Z,-3.83
2019-02-23T05:49:06.236Z,-3.80
2019-02-23T05:51:39.212Z,-3.84
2019-02-23T05:54:09.489Z,-3.81
2019-02-23T05:56:39.850Z,-3.85
2019-02-23T05:59:10.240Z,-3.84
2019-02-23T06:01:40.562Z,-3.78
2019-02-23T06:04:11.017Z,-3.83
2019-02-23T06:06:41.273Z,-3.87
2019-02-23T06:09:12.107Z,-3.81
2019-02-23T06:11:42.366Z,-3.81
2019-02-23T06:14:12.586Z,-3.89
2019-02-23T06:16:42.959Z,-3.92
2019-02-23T06:19:13.230Z,-3.97
2019-02-23T06:21:53.683Z,-3.94
2019-02-23T06:24:15.611Z,-3.96
2019-02-23T06:26:45.953Z,-3.98
2019-02-23T06:29:16.215Z,-3.91
2019-02-23T06:31:46.454Z,-3.92
2019-02-23T06:34:16.966Z,-3.85
2019-02-23T06:36:47.226Z,-3.83
2019-02-23T06:39:17.507Z,-3.72
2019-02-23T06:41:47.710Z,-3.67
2019-02-23T06:44:18.140Z,-3.60
2019-02-23T06:46:48.408Z,-3.55
2019-02-23T06:49:18.658Z,-3.47
2019-02-23T06:51:48.889Z,-3.36
2019-02-23T06:54:19.150Z,-3.38
2019-02-23T06:56:50.387Z,-3.30
2019-02-23T06:59:20.732Z,-3.36
2019-02-23T07:01:50.927Z,-3.27
2019-02-23T07:04:22.080Z,-3.22
2019-02-23T07:06:52.383Z,-3.08
2019-02-23T07:09:22.784Z,-3.07
2019-02-23T07:11:53.969Z,-3.11
2019-02-23T07:14:24.223Z,-3.03
2019-02-23T07:16:54.486Z,-2.86
2019-02-23T07:19:26.358Z,-2.97
2019-02-23T07:21:56.596Z,-2.98
2019-02-23T07:24:27.928Z,-2.96
2019-02-23T07:26:58.222Z,-2.99
2019-02-23T07:29:28.394Z,-2.80
2019-02-23T07:31:58.652Z,-2.80
2019-02-23T07:34:28.878Z,-2.77
2019-02-23T07:36:59.134Z,-2.79
2019-02-23T07:39:29.558Z,-2.72
2019-02-23T07:41:59.824Z,-2.60
2019-02-23T07:44:30.022Z,-2.66
2019-02-23T07:47:00.304Z,-2.49
2019-02-23T07:49:30.500Z,-2.33
2019-02-23T07:52:00.715Z,-2.14
2019-02-23T07:54:31.194Z,-2.17
2019-02-23T07:57:01.495Z,-1.85
2019-02-23T07:59:31.781Z,-1.83
2019-02-23T08:02:02.005Z,-1.75
2019-02-23T08:04:34.047Z,-1.67
2019-02-23T08:07:04.266Z,-0.92
2019-02-23T08:09:34.587Z,-0.02
2019-02-23T08:12:05.036Z,0.51
2019-02-23T08:14:35.304Z,0.25
2019-02-23T08:17:05.557Z,1.21
2019-02-23T08:19:35.828Z,1.74
2019-02-23T08:22:07.072Z,1.48
2019-02-23T08:24:37.508Z,1.56
2019-02-23T08:27:07.751Z,1.95
2019-02-23T08:29:38.362Z,1.65
2019-02-23T08:32:08.655Z,2.36
2019-02-23T08:34:38.929Z,2.23
2019-02-23T08:37:09.151Z,3.41
2019-02-23T08:39:39.444Z,2.52
2019-02-23T08:42:09.666Z,3.27
2019-02-23T08:44:39.901Z,2.27
2019-02-23T08:47:10.325Z,3.18
2019-02-23T08:49:40.647Z,2.34
2019-02-23T08:52:13.124Z,3.77
2019-02-23T08:54:43.567Z,4.86
2019-02-23T08:57:13.822Z,3.46
2019-02-23T08:59:43.997Z,4.23
2019-02-23T09:02:14.242Z,5.03
2019-02-23T09:04:44.909Z,5.64
2019-02-23T09:07:15.207Z,5.63
2019-02-23T09:09:45.469Z,5.34
2019-02-23T09:12:15.647Z,4.08
2019-02-23T09:14:45.897Z,5.01
2019-02-23T09:17:16.209Z,4.51
2019-02-23T09:19:47.800Z,5.01
2019-02-23T09:22:18.242Z,4.28
2019-02-23T09:24:49.852Z,4.69
2019-02-23T09:27:20.101Z,4.69
2019-02-23T09:29:50.405Z,5.98
2019-02-23T09:32:20.625Z,5.58
2019-02-23T09:34:50.843Z,8.84
2019-02-23T09:37:21.025Z,6.44
2019-02-23T09:39:51.364Z,9.71
2019-02-23T09:42:21.603Z,6.24
2019-02-23T09:44:51.837Z,9.68
2019-02-23T09:47:22.028Z,7.57
2019-02-23T09:49:52.336Z,5.76
2019-02-23T09:52:22.540Z,6.76
2019-02-23T09:54:52.779Z,6.22
2019-02-23T09:57:22.978Z,6.14
2019-02-23T09:59:53.216Z,6.48
2019-02-23T10:02:23.588Z,6.77
2019-02-23T10:04:54.251Z,6.48
2019-02-23T10:07:24.533Z,6.45
2019-02-23T10:09:54.562Z,8.26
2019-02-23T10:12:24.803Z,6.47
2019-02-23T10:14:55.177Z,5.58
2019-02-23T10:17:25.358Z,5.52
2019-02-23T10:19:55.602Z,5.90
2019-02-23T10:22:25.799Z,6.08
2019-02-23T10:24:56.034Z,6.14
2019-02-23T10:27:26.556Z,6.31
2019-02-23T10:30:04.239Z,5.96
2019-02-23T10:32:35.075Z,8.02
2019-02-23T10:35:05.411Z,8.44
2019-02-23T10:37:35.621Z,7.95
2019-02-23T10:40:06.847Z,7.51
2019-02-23T10:42:37.090Z,6.67
2019-02-23T10:45:08.579Z,6.60
2019-02-23T10:47:38.785Z,6.99
2019-02-23T10:50:09.643Z,6.01
2019-02-23T10:52:39.896Z,7.88
2019-02-23T10:55:10.779Z,7.71
2019-02-23T10:57:42.208Z,8.65
2019-02-23T11:00:16.051Z,7.98
2019-02-23T11:02:46.513Z,7.89
2019-02-23T11:05:17.461Z,7.51
2019-02-23T11:07:47.657Z,8.56
2019-02-23T11:10:18.811Z,9.79
2019-02-23T11:12:49.226Z,8.45
2019-02-23T11:15:20.429Z,9.36
2019-02-23T11:17:51.046Z,8.79
2019-02-23T11:20:21.630Z,6.88
2019-02-23T11:22:51.827Z,10.26
2019-02-23T11:25:22.160Z,9.30
2019-02-23T11:27:53.792Z,9.79
2019-02-23T11:30:24.072Z,9.82
2019-02-23T11:32:54.369Z,7.28
2019-02-23T11:35:25.181Z,7.27
2019-02-23T11:37:55.371Z,10.23
2019-02-23T11:40:25.664Z,10.43
2019-02-23T11:42:55.970Z,7.66
2019-02-23T11:45:26.400Z,7.32
2019-02-23T11:47:56.652Z,7.22
2019-02-23T11:50:27.195Z,6.27
2019-02-23T11:52:57.449Z,7.54
2019-02-23T11:55:27.696Z,7.47
2019-02-23T11:57:58.014Z,8.00
2019-02-23T12:00:28.195Z,8.18
2019-02-23T12:02:58.415Z,9.03
2019-02-23T12:05:29.044Z,6.35
2019-02-23T12:07:59.321Z,6.56
2019-02-23T12:10:29.582Z,6.57
2019-02-23T12:12:59.857Z,7.17
2019-02-23T12:15:30.127Z,5.96
2019-02-23T12:18:00.394Z,6.34
2019-02-23T12:20:30.757Z,5.65
2019-02-23T12:23:00.986Z,5.59
2019-02-23T12:25:31.215Z,6.06
2019-02-23T12:28:01.471Z,5.35
2019-02-23T12:30:32.790Z,5.59
2019-02-23T12:33:03.112Z,5.90
2019-02-23T12:35:33.336Z,5.75
2019-02-23T12:38:03.860Z,5.62
2019-02-23T12:40:35.164Z,4.84
2019-02-23T12:43:05.380Z,5.70
2019-02-23T12:45:35.567Z,5.83
2019-02-23T12:48:05.758Z,5.77
2019-02-23T12:50:36.044Z,5.92
2019-02-23T12:53:06.311Z,5.12
2019-02-23T12:55:36.498Z,5.66
2019-02-23T12:58:08.996Z,4.66
2019-02-23T13:00:39.143Z,4.78
2019-02-23T13:03:09.309Z,4.86
2019-02-23T13:05:39.836Z,5.59
2019-02-23T13:08:10.102Z,5.23
2019-02-23T13:10:40.299Z,5.25
2019-02-23T13:13:45.693Z,4.95
2019-02-23T13:16:36.248Z,4.47
2019-02-23T13:19:44.403Z,4.11
2019-02-23T13:22:49.835Z,4.72
2019-02-23T13:25:50.417Z,4.62
2019-02-23T13:29:01.959Z,4.62
2019-02-23T13:32:26.968Z,4.78
2019-02-23T13:35:27.357Z,4.41
2019-02-23T13:38:26.386Z,4.53
2019-02-23T13:41:55.562Z,4.80
2019-02-23T13:44:55.142Z,4.48
2019-02-23T13:47:37.984Z,4.76
2019-02-23T13:50:46.136Z,4.29
2019-02-23T13:54:12.425Z,4.45
2019-02-23T13:57:08.923Z,4.36
2019-02-23T14:00:04.967Z,4.81
2019-02-23T14:03:16.310Z,4.80
2019-02-23T14:06:07.988Z,5.49
2019-02-23T14:09:30.457Z,5.18
2019-02-23T14:12:11.707Z,5.05
2019-02-23T14:15:13.541Z,5.13
2019-02-23T14:17:58.458Z,5.43
2019-02-23T14:21:12.666Z,4.98
2019-02-23T14:24:03.631Z,4.96
2019-02-23T14:26:53.436Z,4.73
2019-02-23T14:29:46.492Z,4.52
2019-02-23T14:32:52.238Z,4.50
2019-02-23T14:35:51.750Z,4.20
2019-02-23T14:39:08.741Z,4.19
2019-02-23T14:42:07.546Z,4.37
2019-02-23T14:45:24.446Z,4.20
2019-02-23T14:48:53.340Z,4.27
2019-02-23T14:52:00.380Z,4.12
2019-02-23T14:55:07.903Z,4.25
2019-02-23T14:58:19.458Z,4.19
2019-02-23T15:01:15.531Z,4.25
2019-02-23T15:04:21.744Z,4.38
2019-02-23T15:07:42.414Z,4.62
2019-02-23T15:11:01.203Z,4.27
2019-02-23T15:14:14.448Z,4.13
2019-02-23T15:17:26.591Z,4.51
2019-02-23T15:20:28.546Z,4.07
2019-02-23T15:23:19.986Z,4.23
2019-02-23T15:26:38.865Z,4.02
2019-02-23T15:29:39.108Z,4.12
2019-02-23T15:33:02.609Z,3.70
2019-02-23T15:36:31.680Z,3.93
2019-02-23T15:39:34.727Z,4.08
2019-02-23T15:42:23.125Z,4.05
2019-02-23T15:45:16.928Z,3.75
2019-02-23T15:48:32.268Z,3.72
2019-02-23T15:51:02.645Z,3.53
2019-02-23T15:53:32.966Z,3.60
2019-02-23T15:56:03.132Z,3.69
2019-02-23T15:58:33.350Z,3.49
2019-02-23T16:01:03.784Z,3.31
2019-02-23T16:03:34.084Z,3.39
2019-02-23T16:06:04.406Z,3.47
2019-02-23T16:08:34.896Z,3.40
2019-02-23T16:11:05.166Z,3.38
2019-02-23T16:13:35.376Z,3.25
2019-02-23T16:16:05.690Z,3.33
2019-02-23T16:18:35.981Z,3.14
2019-02-23T16:21:06.281Z,3.08
2019-02-23T16:23:36.660Z,3.09
2019-02-23T16:26:06.921Z,3.12
2019-02-23T16:28:37.157Z,3.10
2019-02-23T16:31:07.432Z,2.90
2019-02-23T16:33:37.656Z,2.96
2019-02-23T16:36:07.942Z,2.75
2019-02-23T16:38:38.181Z,2.83
2019-02-23T16:41:08.695Z,2.78
2019-02-23T16:43:38.945Z,2.67
2019-02-23T16:46:09.177Z,2.61
2019-02-23T16:48:39.376Z,2.45
2019-02-23T16:51:09.754Z,2.41
2019-02-23T16:53:40.058Z,2.39
2019-02-23T16:56:10.357Z,2.38
2019-02-23T16:58:40.563Z,2.33
2019-02-23T17:01:10.812Z,2.32
2019-02-23T17:03:41.162Z,2.14
2019-02-23T17:06:11.396Z,2.10
2019-02-23T17:08:41.846Z,2.08
2019-02-23T17:11:12.124Z,2.00
2019-02-23T17:13:42.392Z,2.00
2019-02-23T17:16:12.726Z,1.88
2019-02-23T17:18:43.013Z,1.81
2019-02-23T17:21:13.258Z,1.79
2019-02-23T17:23:43.606Z,1.73
2019-02-23T17:26:14.007Z,1.87
2019-02-23T17:28:44.211Z,2.00
2019-02-23T17:31:14.404Z,1.89
2019-02-23T17:33:44.719Z,2.04
2019-02-23T17:36:14.983Z,1.98
2019-02-23T17:38:45.426Z,1.86
2019-02-23T17:41:18.160Z,1.72
2019-02-23T17:43:48.358Z,1.32
2019-02-23T17:46:18.650Z,1.46
2019-02-23T17:48:48.865Z,1.32
2019-02-23T17:51:19.053Z,1.17
2019-02-23T17:53:49.244Z,0.91
2019-02-23T17:56:19.431Z,0.95
2019-02-23T17:58:49.692Z,0.70
2019-02-23T18:01:20.252Z,0.73
2019-02-23T18:03:50.467Z,0.72
2019-02-23T18:06:23.099Z,0.70
2019-02-23T18:08:53.562Z,0.74
2019-02-23T18:11:23.862Z,0.60
2019-02-23T18:13:54.129Z,0.59
2019-02-23T18:16:24.521Z,0.55
2019-02-23T18:18:55.050Z,0.66
2019-02-23T18:21:25.357Z,0.67
2019-02-23T18:23:55.597Z,0.68
2019-02-23T18:26:25.810Z,0.48
2019-02-23T18:28:56.136Z,0.56
2019-02-23T18:31:27.322Z,0.54
2019-02-23T18:33:57.526Z,0.50
2019-02-23T18:36:29.021Z,0.42
2019-02-23T18:38:59.284Z,0.42
2019-02-23T18:41:29.566Z,0.50
2019-02-23T18:43:59.958Z,0.50
2019-02-23T18:46:30.266Z,0.51
2019-02-23T18:49:00.479Z,0.44
2019-02-23T18:51:31.214Z,0.34
2019-02-23T18:54:01.517Z,0.24
2019-02-23T18:56:31.760Z,0.17
2019-02-23T18:59:02.128Z,0.14
2019-02-23T19:01:32.521Z,0.19
2019-02-23T19:04:02.850Z,0.11
2019-02-23T19:06:33.126Z,0.18
2019-02-23T19:09:03.767Z,0.25
2019-02-23T19:11:35.815Z,0.11
2019-02-23T19:14:06.063Z,0.09
2019-02-23T19:16:36.464Z,0.07
2019-02-23T19:19:06.742Z,-0.01
2019-02-23T19:21:37.106Z,0.05
2019-02-23T19:24:07.444Z,0.11
2019-02-23T19:26:38.453Z,0.04
2019-02-23T19:29:09.997Z,0.08
2019-02-23T19:31:40.379Z,-0.04
2019-02-23T19:34:10.714Z,-0.11
2019-02-23T19:36:41.021Z,-0.20
2019-02-23T19:39:11.342Z,-0.25
2019-02-23T19:41:41.843Z,-0.13
2019-02-23T19:44:12.110Z,-0.22
2019-02-23T19:46:56.419Z,-0.25
2019-02-23T19:49:26.727Z,-0.27
2019-02-23T19:51:56.975Z,-0.35
2019-02-23T19:54:27.262Z,-0.34
2019-02-23T19:56:57.566Z,-0.39
2019-02-23T19:59:27.946Z,-0.44
2019-02-23T20:01:58.280Z,-0.38
2019-02-23T20:04:28.613Z,-0.47
2019-02-23T20:06:59.080Z,-0.53
2019-02-23T20:09:29.793Z,-0.52
2019-02-23T20:12:00.107Z,-0.51
2019-02-23T20:14:30.286Z,-0.58
2019-02-23T20:17:00.517Z,-0.52
2019-02-23T20:19:30.856Z,-0.47
2019-02-23T20:22:01.217Z,-0.44
2019-02-23T20:24:33.048Z,-0.49
2019-02-23T20:27:03.270Z,-0.45
2019-02-23T20:29:33.572Z,-0.37
2019-02-23T20:32:07.278Z,-0.44
2019-02-23T20:34:37.618Z,-0.40
2019-02-23T20:37:07.894Z,-0.47
2019-02-23T20:39:40.360Z,-0.44
2019-02-23T20:42:10.768Z,-0.44
2019-02-23T20:44:41.289Z,-0.46
2019-02-23T20:47:12.569Z,-0.51
2019-02-23T20:49:42.819Z,-0.36
2019-02-23T20:52:13.021Z,-0.29
2019-02-23T20:54:43.880Z,-0.36
2019-02-23T20:57:14.332Z,-0.32
2019-02-23T20:59:44.616Z,-0.38
2019-02-23T21:02:15.000Z,-0.42
2019-02-23T21:04:45.458Z,-0.48
2019-02-23T21:07:21.544Z,-0.46
2019-02-23T21:09:53.691Z,-0.41
2019-02-23T21:12:24.052Z,-0.34
2019-02-23T21:14:54.503Z,-0.27
2019-02-23T21:17:24.789Z,-0.33
2019-02-23T21:19:55.127Z,-0.41
2019-02-23T21:22:25.410Z,-0.33
2019-02-23T21:24:55.983Z,-0.40
2019-02-23T21:27:26.410Z,-0.49
2019-02-23T21:29:57.553Z,-0.50
2019-02-23T21:32:27.840Z,-0.59
2019-02-23T21:34:58.099Z,-0.65
2019-02-23T21:37:28.372Z,-0.60
2019-02-23T21:39:58.610Z,-0.57
2019-02-23T21:42:28.920Z,-0.59
2019-02-23T21:44:59.140Z,-0.54
2019-02-23T21:47:29.381Z,-0.63
2019-02-23T21:49:59.711Z,-0.59
2019-02-23T21:52:29.999Z,-0.64
2019-02-23T21:55:00.317Z,-0.58
2019-02-23T21:57:30.514Z,-0.65
2019-02-23T22:00:00.789Z,-0.76
2019-02-23T22:02:31.816Z,-0.85
2019-02-23T22:05:11.487Z,-0.81
2019-02-23T22:07:34.376Z,-0.78
2019-02-23T22:10:04.909Z,-0.85
2019-02-23T22:12:35.102Z,-0.84
2019-02-23T22:15:05.620Z,-0.82
2019-02-23T22:17:35.851Z,-0.81
2019-02-23T22:20:06.484Z,-0.81
2019-02-23T22:22:36.675Z,-0.80
2019-02-23T22:25:07.237Z,-0.78
2019-02-23T22:27:37.456Z,-0.77
2019-02-23T22:30:08.901Z,-0.78
2019-02-23T22:32:39.099Z,-0.76
2019-02-23T22:35:09.280Z,-0.77
2019-02-23T22:37:39.506Z,-0.69
2019-02-23T22:40:09.752Z,-0.82
2019-02-23T22:42:40.068Z,-0.87
2019-02-23T22:45:10.285Z,-0.89
2019-02-23T22:47:40.484Z,-0.93
2019-02-23T22:50:10.741Z,-0.90
2019-02-23T22:52:41.030Z,-0.99
2019-02-23T22:55:11.219Z,-0.90
2019-02-23T22:57:41.548Z,-0.89
2019-02-23T23:00:14.346Z,-0.92
2019-02-23T23:02:46.160Z,-0.93
2019-02-23T23:05:16.432Z,-1.01
2019-02-23T23:07:46.669Z,-0.97
2019-02-23T23:10:17.154Z,-0.93
2019-02-23T23:12:47.547Z,-0.99
2019-02-23T23:15:17.733Z,-1.01
2019-02-23T23:17:47.932Z,-0.94
2019-02-23T23:20:18.249Z,-1.00
2019-02-23T23:22:48.466Z,-0.99
2019-02-23T23:25:18.655Z,-0.95
2019-02-23T23:27:49.644Z,-0.96
2019-02-23T23:30:20.014Z,-1.02
2019-02-23T23:32:50.579Z,-0.97
2019-02-23T23:35:20.824Z,-0.96
2019-02-23T23:37:51.054Z,-0.96
2019-02-23T23:40:21.319Z,-0.96
2019-02-23T23:42:58.236Z,-0.94
2019-02-23T23:45:24.313Z,-0.88
2019-02-23T23:47:54.524Z,-0.90
2019-02-23T23:50:24.868Z,-0.94
2019-02-23T23:52:55.121Z,-0.90
2019-02-23T23:55:25.515Z,-0.92
2019-02-23T23:57:58.354Z,-0.89
